createdAt,value
2022-11-25T00:00:32.560Z,36.38
2022-11-25T00:02:54.333Z,36.00
2022-11-25T00:04:56.708Z,35.03
2022-11-25T00:06:58.478Z,36.67
2022-11-25T00:09:09.913Z,37.08
2022-11-25T00:11:13.913Z,35.70
2022-11-25T00:13:15.746Z,34.58
2022-11-25T00:15:17.544Z,36.38
2022-11-25T00:17:19.680Z,35.75
2022-11-25T00:19:21.560Z,35.25
2022-11-25T00:21:31.597Z,36.70
2022-11-25T00:23:33.656Z,35.78
2022-11-25T00:25:35.786Z,34.37
2022-11-25T00:27:37.927Z,32.75
2022-11-25T00:29:39.668Z,33.05
2022-11-25T00:31:41.851Z,32.35
2022-11-25T00:33:45.027Z,33.85
2022-11-25T00:35:46.790Z,35.92
2022-11-25T00:37:48.591Z,32.83
2022-11-25T00:39:51.706Z,34.40
2022-11-25T00:42:12.152Z,34.10
2022-11-25T00:44:36.439Z,31.65
2022-11-25T00:46:39.207Z,33.63
2022-11-25T00:48:41.010Z,31.25
2022-11-25T00:50:42.918Z,35.92
2022-11-25T00:52:45.161Z,34.00
2022-11-25T00:54:47.833Z,34.35
2022-11-25T00:56:50.292Z,35.13
2022-11-25T00:58:53.318Z,33.90
2022-11-25T01:00:55.097Z,33.75
2022-11-25T01:02:56.850Z,35.45
2022-11-25T01:04:59.026Z,35.25
2022-11-25T01:07:02.222Z,34.88
2022-11-25T01:09:05.489Z,35.00
2022-11-25T01:11:11.453Z,36.85
2022-11-25T01:13:13.249Z,35.05
2022-11-25T01:15:15.021Z,35.70
2022-11-25T01:17:17.141Z,37.67
2022-11-25T01:19:20.152Z,34.72
2022-11-25T01:21:30.641Z,36.83
2022-11-25T01:23:33.353Z,36.28
2022-11-25T01:25:39.259Z,36.30
2022-11-25T01:27:43.158Z,36.03
2022-11-25T01:29:45.288Z,35.70
2022-11-25T01:31:48.692Z,36.58
2022-11-25T01:33:56.722Z,34.45
2022-11-25T01:36:05.154Z,37.00
2022-11-25T01:38:06.962Z,37.70
2022-11-25T01:40:09.558Z,36.60
2022-11-25T01:44:19.431Z,36.35
2022-11-25T01:46:25.759Z,36.80
2022-11-25T01:48:43.040Z,36.88
2022-11-25T01:50:47.449Z,36.40
2022-11-25T01:52:51.970Z,36.20
2022-11-25T01:55:05.323Z,35.47
2022-11-25T01:57:14.049Z,37.70
2022-11-25T01:59:16.176Z,36.10
2022-11-25T02:01:18.422Z,36.70
2022-11-25T02:03:26.814Z,35.92
2022-11-25T02:05:52.604Z,34.45
2022-11-25T02:07:55.561Z,35.05
2022-11-25T02:09:58.494Z,36.85
2022-11-25T02:14:04.006Z,28.35
2022-11-25T02:16:05.904Z,37.67
2022-11-25T02:18:07.805Z,36.38
2022-11-25T02:20:14.412Z,37.05
2022-11-25T02:22:26.078Z,36.05
2022-11-25T02:24:43.158Z,38.97
2022-11-25T02:26:45.338Z,37.80
2022-11-25T02:28:48.798Z,40.40
2022-11-25T02:30:51.265Z,38.25
2022-11-25T02:32:53.437Z,37.47
2022-11-25T02:34:55.389Z,37.20
2022-11-25T02:36:57.275Z,36.80
2022-11-25T02:39:01.648Z,38.08
2022-11-25T02:41:25.130Z,39.22
2022-11-25T02:43:27.259Z,38.47
2022-11-25T02:45:39.885Z,37.63
2022-11-25T02:47:41.753Z,36.85
2022-11-25T02:49:43.498Z,38.45
2022-11-25T02:51:46.185Z,38.35
2022-11-25T02:53:48.077Z,39.35
2022-11-25T02:55:49.880Z,37.10
2022-11-25T02:57:52.115Z,37.20
2022-11-25T02:59:53.906Z,38.25
2022-11-25T03:01:55.750Z,38.55
2022-11-25T03:03:58.655Z,38.92
2022-11-25T03:06:00.512Z,39.00
2022-11-25T03:08:02.396Z,40.13
2022-11-25T03:10:05.049Z,29.70
2022-11-25T03:12:21.998Z,41.85
2022-11-25T03:14:23.857Z,39.10
2022-11-25T03:16:26.032Z,37.72
2022-11-25T03:18:27.999Z,42.13
2022-11-25T03:20:29.969Z,38.50
2022-11-25T03:22:32.166Z,36.75
2022-11-25T03:24:34.349Z,37.45
2022-11-25T03:26:36.325Z,40.35
2022-11-25T03:28:38.450Z,38.03
2022-11-25T03:30:40.982Z,37.65
2022-11-25T03:32:43.418Z,37.55
2022-11-25T03:34:45.586Z,38.13
2022-11-25T03:36:47.760Z,35.58
2022-11-25T03:38:49.578Z,34.67
2022-11-25T03:40:51.797Z,35.53
2022-11-25T03:42:53.625Z,34.20
2022-11-25T03:44:55.385Z,35.95
2022-11-25T03:46:57.505Z,37.13
2022-11-25T03:48:59.315Z,36.03
2022-11-25T03:51:01.133Z,36.75
2022-11-25T03:53:03.266Z,38.67
2022-11-25T03:55:06.218Z,38.28
2022-11-25T03:59:10.299Z,36.65
2022-11-25T04:01:12.153Z,37.73
2022-11-25T04:03:14.077Z,37.55
2022-11-25T04:05:16.325Z,35.90
2022-11-25T04:07:18.370Z,37.70
2022-11-25T04:09:20.282Z,37.70
2022-11-25T04:11:22.432Z,37.60
2022-11-25T04:13:24.255Z,36.92
2022-11-25T04:15:26.126Z,38.80
2022-11-25T04:17:28.259Z,38.95
2022-11-25T04:19:30.023Z,38.70
2022-11-25T04:21:31.930Z,39.10
2022-11-25T04:23:34.613Z,39.35
2022-11-25T04:25:36.948Z,41.92
2022-11-25T04:27:38.938Z,38.42
2022-11-25T04:29:41.055Z,39.22
2022-11-25T04:31:42.849Z,40.13
2022-11-25T04:33:49.648Z,40.85
2022-11-25T04:35:54.568Z,40.38
2022-11-25T04:37:56.378Z,39.42
2022-11-25T04:39:58.154Z,39.92
2022-11-25T04:42:18.894Z,39.67
2022-11-25T04:44:20.647Z,39.47
2022-11-25T04:46:24.922Z,39.45
2022-11-25T04:48:27.359Z,39.63
2022-11-25T04:50:29.171Z,40.07
2022-11-25T04:52:31.006Z,37.33
2022-11-25T04:54:33.358Z,37.35
2022-11-25T04:56:35.349Z,40.13
2022-11-25T04:58:55.874Z,38.17
2022-11-25T05:00:58.064Z,37.70
2022-11-25T05:02:59.879Z,37.63
2022-11-25T05:05:02.137Z,38.03
2022-11-25T05:07:04.330Z,37.20
2022-11-25T05:09:06.536Z,37.80
2022-11-25T05:11:08.326Z,37.58
2022-11-25T05:13:10.461Z,37.95
2022-11-25T05:15:12.334Z,37.47
2022-11-25T05:17:22.869Z,36.33
2022-11-25T05:19:25.062Z,37.05
2022-11-25T05:21:27.544Z,40.85
2022-11-25T05:23:29.402Z,37.17
2022-11-25T05:25:31.577Z,37.22
2022-11-25T05:27:33.438Z,36.53
2022-11-25T05:29:35.465Z,35.53
2022-11-25T05:31:37.766Z,36.38
2022-11-25T05:33:39.568Z,37.58
2022-11-25T05:35:41.341Z,35.40
2022-11-25T05:37:44.996Z,36.83
2022-11-25T05:39:46.854Z,36.95
2022-11-25T05:41:48.813Z,35.45
2022-11-25T05:43:53.609Z,36.53
2022-11-25T05:45:55.802Z,34.20
2022-11-25T05:47:57.640Z,35.30
2022-11-25T05:49:59.769Z,36.28
2022-11-25T05:52:01.592Z,34.70
2022-11-25T05:54:03.401Z,35.15
2022-11-25T05:56:07.207Z,32.88
2022-11-25T05:58:09.418Z,33.08
2022-11-25T06:00:11.815Z,32.30
2022-11-25T06:02:14.016Z,31.63
2022-11-25T06:04:16.055Z,31.35
2022-11-25T06:06:18.419Z,33.93
2022-11-25T06:08:20.535Z,32.65
2022-11-25T06:10:22.364Z,32.28
2022-11-25T06:12:24.350Z,33.60
2022-11-25T06:14:26.466Z,33.22
2022-11-25T06:16:28.735Z,31.80
2022-11-25T06:18:30.522Z,32.45
2022-11-25T06:20:32.650Z,32.58
2022-11-25T06:22:34.590Z,30.67
2022-11-25T06:24:36.593Z,24.15
2022-11-25T06:26:38.878Z,32.70
2022-11-25T06:28:41.104Z,31.95
2022-11-25T06:30:42.871Z,34.13
2022-11-25T06:32:45.141Z,34.53
2022-11-25T06:34:46.883Z,32.72
2022-11-25T06:36:51.729Z,33.80
2022-11-25T06:38:54.491Z,32.65
2022-11-25T06:41:00.653Z,33.00
2022-11-25T06:43:04.717Z,31.70
2022-11-25T06:45:07.505Z,32.58
2022-11-25T06:47:09.366Z,32.20
2022-11-25T06:49:11.389Z,31.95
2022-11-25T06:51:14.855Z,33.97
2022-11-25T06:53:21.163Z,33.10
2022-11-25T06:55:25.667Z,35.17
2022-11-25T06:57:28.191Z,34.70
2022-11-25T06:59:29.985Z,34.60
2022-11-25T07:01:31.859Z,33.72
2022-11-25T07:03:35.033Z,34.80
2022-11-25T07:05:36.850Z,35.53
2022-11-25T07:07:38.668Z,36.15
2022-11-25T07:09:40.947Z,35.55
2022-11-25T07:11:43.008Z,35.05
2022-11-25T07:13:45.471Z,58.97
2022-11-25T07:17:49.825Z,35.75
2022-11-25T07:19:51.783Z,36.20
2022-11-25T07:21:54.023Z,36.55
2022-11-25T07:23:56.068Z,35.25
2022-11-25T07:26:02.517Z,34.87
2022-11-25T07:28:04.706Z,36.03
2022-11-25T07:31:09.270Z,36.25
2022-11-25T07:34:34.646Z,36.33
2022-11-25T07:36:37.535Z,34.58
2022-11-25T07:38:46.233Z,37.40
2022-11-25T07:40:50.647Z,38.55
2022-11-25T07:42:52.814Z,39.22
2022-11-25T07:44:54.679Z,37.50
2022-11-25T07:46:57.216Z,38.35
2022-11-25T07:49:02.342Z,38.05
2022-11-25T07:51:04.250Z,39.13
2022-11-25T07:53:06.031Z,38.42
2022-11-25T07:55:08.730Z,38.25
2022-11-25T07:57:11.144Z,39.90
2022-11-25T07:59:16.254Z,40.05
2022-11-25T08:01:19.833Z,40.08
2022-11-25T08:05:23.483Z,40.22
2022-11-25T08:07:26.035Z,41.90
2022-11-25T08:09:27.889Z,41.05
2022-11-25T08:11:31.615Z,41.88
2022-11-25T08:13:33.814Z,41.75
2022-11-25T08:15:35.849Z,41.00
2022-11-25T08:17:37.708Z,53.37
2022-11-25T08:19:40.737Z,45.28
2022-11-25T08:21:42.903Z,42.00
2022-11-25T08:23:48.727Z,42.10
2022-11-25T08:25:51.714Z,43.17
2022-11-25T08:27:53.515Z,44.10
2022-11-25T08:29:55.296Z,42.40
2022-11-25T08:31:58.504Z,43.35
2022-11-25T08:34:01.034Z,43.78
2022-11-25T08:36:03.470Z,42.78
2022-11-25T08:38:08.109Z,41.50
2022-11-25T08:40:11.953Z,43.20
2022-11-25T08:42:13.735Z,43.50
2022-11-25T08:44:15.923Z,45.08
2022-11-25T08:46:20.776Z,42.97
2022-11-25T08:48:23.064Z,46.53
2022-11-25T08:50:25.373Z,43.00
2022-11-25T08:52:30.343Z,43.35
2022-11-25T08:54:32.531Z,41.70
2022-11-25T08:56:35.186Z,43.55
2022-11-25T08:58:38.140Z,45.10
2022-11-25T09:00:42.214Z,46.03
2022-11-25T09:02:44.442Z,44.10
2022-11-25T09:04:46.407Z,47.00
2022-11-25T09:06:48.580Z,45.45
2022-11-25T09:08:50.730Z,42.17
2022-11-25T09:10:55.367Z,44.40
2022-11-25T09:12:57.523Z,43.75
2022-11-25T09:14:59.815Z,44.58
2022-11-25T09:17:02.153Z,43.63
2022-11-25T09:19:04.455Z,43.15
2022-11-25T09:21:11.513Z,42.92
2022-11-25T09:23:14.055Z,44.75
2022-11-25T09:25:15.969Z,44.65
2022-11-25T09:27:18.177Z,43.20
2022-11-25T09:29:20.287Z,48.83
2022-11-25T09:31:23.370Z,46.65
2022-11-25T09:33:25.202Z,43.60
2022-11-25T09:35:30.557Z,45.10
2022-11-25T09:37:32.571Z,43.53
2022-11-25T09:39:35.639Z,44.05
2022-11-25T09:45:06.574Z,42.78
2022-11-25T09:47:26.062Z,42.83
2022-11-25T09:49:40.316Z,43.63
2022-11-25T09:52:05.769Z,43.30
2022-11-25T09:54:18.472Z,43.55
2022-11-25T09:56:33.782Z,44.83
2022-11-25T09:58:41.014Z,50.20
2022-11-25T10:00:46.025Z,48.15
2022-11-25T10:03:04.794Z,45.00
2022-11-25T10:05:18.728Z,43.67
2022-11-25T10:07:53.834Z,42.33
2022-11-25T10:09:56.639Z,40.47
2022-11-25T10:12:19.336Z,42.25
2022-11-25T10:14:35.166Z,41.08
2022-11-25T10:16:52.210Z,44.13
2022-11-25T10:19:01.503Z,43.38
2022-11-25T10:21:04.379Z,42.65
2022-11-25T10:25:17.485Z,42.22
2022-11-25T10:27:26.766Z,42.47
2022-11-25T10:29:30.568Z,42.00
2022-11-25T10:31:36.823Z,41.35
2022-11-25T10:33:51.456Z,51.95
2022-11-25T10:35:56.286Z,54.20
2022-11-25T10:38:01.825Z,42.50
2022-11-25T10:40:04.154Z,48.70
2022-11-25T10:42:15.286Z,45.40
2022-11-25T10:44:29.002Z,46.50
2022-11-25T10:47:13.059Z,45.03
2022-11-25T10:49:22.865Z,45.15
2022-11-25T10:51:43.627Z,43.55
2022-11-25T10:54:12.865Z,43.30
2022-11-25T10:56:19.749Z,43.63
2022-11-25T10:58:35.132Z,43.15
2022-11-25T11:00:38.644Z,45.20
2022-11-25T11:02:41.760Z,48.67
2022-11-25T11:04:55.306Z,44.55
2022-11-25T11:07:08.365Z,44.25
2022-11-25T11:09:34.074Z,44.75
2022-11-25T11:11:47.956Z,44.75
2022-11-25T11:15:54.372Z,39.55
2022-11-25T11:17:58.408Z,39.97
2022-11-25T11:20:14.971Z,41.83
2022-11-25T11:22:18.152Z,39.53
2022-11-25T11:24:35.703Z,39.58
2022-11-25T11:26:37.939Z,38.90
2022-11-25T11:28:41.391Z,38.80
2022-11-25T11:30:56.894Z,39.70
2022-11-25T11:33:03.642Z,41.00
2022-11-25T11:35:21.697Z,43.28
2022-11-25T11:37:42.677Z,36.53
2022-11-25T11:40:12.895Z,35.03
2022-11-25T11:42:30.328Z,34.85
2022-11-25T11:44:35.501Z,32.92
2022-11-25T11:46:53.181Z,35.95
2022-11-25T11:49:10.916Z,34.45
2022-11-25T11:51:13.903Z,34.03
2022-11-25T11:53:28.077Z,35.03
2022-11-25T11:56:00.304Z,33.88
2022-11-25T11:58:40.794Z,35.67
2022-11-25T12:03:19.461Z,31.27
2022-11-25T12:05:26.778Z,35.80
2022-11-25T12:07:37.871Z,38.80
2022-11-25T12:10:10.193Z,46.88
2022-11-25T12:12:17.311Z,75.72
2022-11-25T12:14:45.027Z,47.65
2022-11-25T12:16:55.892Z,44.28
2022-11-25T12:19:33.683Z,49.55
2022-11-25T12:21:48.632Z,41.58
2022-11-25T12:24:04.456Z,43.92
2022-11-25T12:26:13.150Z,39.65
2022-11-25T12:28:21.460Z,39.25
2022-11-25T12:30:24.841Z,45.53
2022-11-25T12:32:46.715Z,46.45
2022-11-25T12:34:58.049Z,45.90
2022-11-25T12:37:14.828Z,38.58
2022-11-25T12:39:57.179Z,38.50
2022-11-25T12:42:12.424Z,40.08
2022-11-25T12:44:18.393Z,39.55
2022-11-25T12:46:20.519Z,43.28
2022-11-25T12:48:24.975Z,43.85
2022-11-25T12:50:48.605Z,39.55
2022-11-25T12:52:50.862Z,39.88
2022-11-25T12:54:53.034Z,40.88
2022-11-25T12:57:22.980Z,41.47
2022-11-25T13:00:17.894Z,43.00
2022-11-25T13:02:35.850Z,44.38
2022-11-25T13:05:39.028Z,43.28
2022-11-25T13:07:54.136Z,40.50
2022-11-25T13:10:22.245Z,41.55
2022-11-25T13:13:00.210Z,42.20
2022-11-25T13:15:11.891Z,41.75
2022-11-25T13:17:16.195Z,42.85
2022-11-25T13:19:20.161Z,42.53
2022-11-25T13:23:30.122Z,43.17
2022-11-25T13:25:34.644Z,42.55
2022-11-25T13:27:42.398Z,42.22
2022-11-25T13:29:44.535Z,42.60
2022-11-25T13:31:59.914Z,43.20
2022-11-25T13:34:20.420Z,44.72
2022-11-25T13:36:47.001Z,42.75
2022-11-25T13:38:50.574Z,42.47
2022-11-25T13:41:01.948Z,45.55
2022-11-25T13:43:21.490Z,45.05
2022-11-25T13:45:32.175Z,44.03
2022-11-25T13:47:38.879Z,42.08
2022-11-25T13:49:51.342Z,44.47
2022-11-25T13:52:13.267Z,44.30
2022-11-25T13:54:18.413Z,45.80
2022-11-25T13:56:32.136Z,45.03
2022-11-25T13:58:36.554Z,43.65
2022-11-25T14:01:27.972Z,43.65
2022-11-25T14:03:46.143Z,43.13
2022-11-25T14:06:00.824Z,44.00
2022-11-25T14:08:26.612Z,42.70
2022-11-25T14:11:08.831Z,42.95
2022-11-25T14:13:40.837Z,41.97
2022-11-25T14:16:07.787Z,41.75
2022-11-25T14:18:43.006Z,42.42
2022-11-25T14:23:07.051Z,40.13
2022-11-25T14:25:30.410Z,40.95
2022-11-25T14:27:35.948Z,45.30
2022-11-25T14:29:45.329Z,44.03
2022-11-25T14:31:59.489Z,43.08
2022-11-25T14:34:09.809Z,39.70
2022-11-25T14:36:17.501Z,43.17
2022-11-25T14:38:25.485Z,44.28
2022-11-25T14:40:37.026Z,46.58
2022-11-25T14:42:44.112Z,50.92
2022-11-25T14:44:56.698Z,46.50
2022-11-25T14:46:58.925Z,44.00
2022-11-25T14:49:03.289Z,43.50
2022-11-25T14:51:10.584Z,48.53
2022-11-25T14:53:14.270Z,55.90
2022-11-25T14:55:32.339Z,52.72
2022-11-25T14:57:37.283Z,51.58
2022-11-25T14:59:44.976Z,49.25
2022-11-25T15:01:55.146Z,51.30
2022-11-25T15:04:12.712Z,46.17
2022-11-25T15:06:15.388Z,45.60
2022-11-25T15:08:22.160Z,45.22
2022-11-25T15:10:33.852Z,44.72
2022-11-25T15:12:38.366Z,44.13
2022-11-25T15:14:49.745Z,45.40
2022-11-25T15:16:52.847Z,43.97
2022-11-25T15:19:00.967Z,46.38
2022-11-25T15:21:03.460Z,47.40
2022-11-25T15:23:05.982Z,42.97
2022-11-25T15:25:14.735Z,44.13
2022-11-25T15:27:27.668Z,43.35
2022-11-25T15:31:34.997Z,42.88
2022-11-25T15:33:37.616Z,43.35
2022-11-25T15:37:42.006Z,42.72
2022-11-25T15:39:44.576Z,43.95
2022-11-25T15:42:03.463Z,45.30
2022-11-25T15:44:06.434Z,45.33
2022-11-25T15:48:29.693Z,34.78
2022-11-25T15:50:34.377Z,46.10
2022-11-25T15:52:40.021Z,46.50
2022-11-25T15:54:45.202Z,47.03
2022-11-25T15:56:50.772Z,47.95
2022-11-25T15:58:55.127Z,46.30
2022-11-25T16:01:21.736Z,46.78
2022-11-25T16:03:23.958Z,44.28
2022-11-25T16:05:37.619Z,47.85
2022-11-25T16:07:54.924Z,46.15
2022-11-25T16:09:56.787Z,45.13
2022-11-25T16:12:06.724Z,46.53
2022-11-25T16:14:27.144Z,45.15
2022-11-25T16:16:30.244Z,46.20
2022-11-25T16:18:40.769Z,45.20
2022-11-25T16:20:51.944Z,46.35
2022-11-25T16:22:53.963Z,49.75
2022-11-25T16:25:02.134Z,48.08
2022-11-25T16:27:27.979Z,46.78
2022-11-25T16:31:34.364Z,44.63
2022-11-25T16:33:36.591Z,45.45
2022-11-25T16:35:38.960Z,46.53
2022-11-25T16:39:51.391Z,48.05
2022-11-25T16:42:02.969Z,45.90
2022-11-25T16:44:08.757Z,47.10
2022-11-25T16:46:15.826Z,46.67
2022-11-25T16:48:20.386Z,46.90
2022-11-25T16:50:23.001Z,46.90
2022-11-25T16:52:24.795Z,47.15
2022-11-25T16:54:27.141Z,47.42
2022-11-25T16:56:29.651Z,47.63
2022-11-25T16:58:31.441Z,47.97
2022-11-25T17:00:33.607Z,53.72
2022-11-25T17:02:35.918Z,51.65
2022-11-25T17:04:37.799Z,49.85
2022-11-25T17:06:43.946Z,51.28
2022-11-25T17:08:46.725Z,50.47
2022-11-25T17:10:49.770Z,48.15
2022-11-25T17:12:51.771Z,50.47
2022-11-25T17:14:53.939Z,49.23
2022-11-25T17:16:56.355Z,47.67
2022-11-25T17:19:00.832Z,46.70
2022-11-25T17:21:04.902Z,69.97
2022-11-25T17:23:12.559Z,55.97
2022-11-25T17:25:14.485Z,49.58
2022-11-25T17:27:26.356Z,50.88
2022-11-25T17:29:37.511Z,48.58
2022-11-25T17:31:39.537Z,52.92
2022-11-25T17:33:47.512Z,68.55
2022-11-25T17:35:50.552Z,58.67
2022-11-25T17:37:53.413Z,57.42
2022-11-25T17:39:55.676Z,61.45
2022-11-25T17:42:02.371Z,58.00
2022-11-25T17:44:04.375Z,58.78
2022-11-25T17:46:11.172Z,53.87
2022-11-25T17:48:19.438Z,57.13
2022-11-25T17:50:25.952Z,52.40
2022-11-25T17:52:30.900Z,52.95
2022-11-25T17:54:34.099Z,50.47
2022-11-25T17:56:37.482Z,52.63
2022-11-25T17:58:40.499Z,49.03
2022-11-25T18:00:44.064Z,50.97
2022-11-25T18:02:46.601Z,57.00
2022-11-25T18:04:49.860Z,51.60
2022-11-25T18:06:55.450Z,50.90
2022-11-25T18:08:57.584Z,50.58
2022-11-25T18:11:02.752Z,54.53
2022-11-25T18:13:05.824Z,48.97
2022-11-25T18:15:14.174Z,47.80
2022-11-25T18:17:19.293Z,48.05
2022-11-25T18:19:24.011Z,67.30
2022-11-25T18:21:26.500Z,50.22
2022-11-25T18:23:29.271Z,51.25
2022-11-25T18:25:36.392Z,51.20
2022-11-25T18:27:38.182Z,48.75
2022-11-25T18:29:39.991Z,51.38
2022-11-25T18:31:47.733Z,51.95
2022-11-25T18:33:51.104Z,50.90
2022-11-25T18:35:55.769Z,59.03
2022-11-25T18:38:00.011Z,60.67
2022-11-25T18:40:03.709Z,57.83
2022-11-25T18:42:08.597Z,54.38
2022-11-25T18:44:26.268Z,52.10
2022-11-25T18:46:33.137Z,53.50
2022-11-25T18:48:35.633Z,54.63
2022-11-25T18:50:37.727Z,52.95
2022-11-25T18:52:39.676Z,54.23
2022-11-25T18:54:42.255Z,54.17
2022-11-25T18:56:51.625Z,51.83
2022-11-25T18:58:53.753Z,53.05
2022-11-25T19:01:03.358Z,54.67
2022-11-25T19:03:13.466Z,53.67
2022-11-25T19:05:38.108Z,54.92
2022-11-25T19:07:40.641Z,54.92
2022-11-25T19:09:42.550Z,55.20
2022-11-25T19:11:49.121Z,53.60
2022-11-25T19:13:53.714Z,55.35
2022-11-25T19:16:05.271Z,54.83
2022-11-25T19:18:16.578Z,59.78
2022-11-25T19:20:20.986Z,56.33
2022-11-25T19:22:35.307Z,60.72
2022-11-25T19:24:38.990Z,58.92
2022-11-25T19:28:51.530Z,60.85
2022-11-25T19:30:59.486Z,59.00
2022-11-25T19:33:02.469Z,58.00
2022-11-25T19:35:11.258Z,55.25
2022-11-25T19:37:26.249Z,58.35
2022-11-25T19:39:35.708Z,57.60
2022-11-25T19:41:38.105Z,61.85
2022-11-25T19:43:39.905Z,62.47
2022-11-25T19:45:41.926Z,69.45
2022-11-25T19:47:48.790Z,63.25
2022-11-25T19:49:56.166Z,63.70
2022-11-25T19:51:57.991Z,68.97
2022-11-25T19:54:00.534Z,63.72
2022-11-25T19:56:05.557Z,64.63
2022-11-25T19:58:20.079Z,63.10
2022-11-25T20:00:38.099Z,59.97
2022-11-25T20:02:46.187Z,60.75
2022-11-25T20:04:57.062Z,61.65
2022-11-25T20:07:00.179Z,65.25
2022-11-25T20:09:07.890Z,62.42
2022-11-25T20:11:16.889Z,66.85
2022-11-25T20:13:23.171Z,63.38
2022-11-25T20:15:26.029Z,64.82
2022-11-25T20:19:33.224Z,61.65
2022-11-25T20:21:39.880Z,63.40
2022-11-25T20:23:45.082Z,66.43
2022-11-25T20:25:50.201Z,65.68
2022-11-25T20:27:55.468Z,65.13
2022-11-25T20:30:00.151Z,70.80
2022-11-25T20:32:22.352Z,62.47
2022-11-25T20:34:24.847Z,70.43
2022-11-25T20:38:37.678Z,64.13
2022-11-25T20:40:45.344Z,69.47
2022-11-25T20:42:50.504Z,63.42
2022-11-25T20:45:03.435Z,64.93
2022-11-25T20:47:15.160Z,63.85
2022-11-25T20:49:23.423Z,68.00
2022-11-25T20:51:27.934Z,64.75
2022-11-25T20:53:33.164Z,64.35
2022-11-25T20:55:36.739Z,64.60
2022-11-25T20:57:45.147Z,64.07
2022-11-25T20:59:47.533Z,66.93
2022-11-25T21:01:50.580Z,64.50
2022-11-25T21:03:56.557Z,65.82
2022-11-25T21:06:05.444Z,63.92
2022-11-25T21:08:17.705Z,70.15
2022-11-25T21:10:29.092Z,64.30
2022-11-25T21:12:31.252Z,63.33
2022-11-25T21:14:35.095Z,65.88
2022-11-25T21:16:37.451Z,61.92
2022-11-25T21:18:41.323Z,63.10
2022-11-25T21:20:43.361Z,63.38
2022-11-25T21:22:50.004Z,65.28
2022-11-25T21:24:52.334Z,60.80
2022-11-25T21:27:03.459Z,65.68
2022-11-25T21:29:15.603Z,62.67
2022-11-25T21:31:23.777Z,65.60
2022-11-25T21:33:26.387Z,66.28
2022-11-25T21:35:33.299Z,63.95
2022-11-25T21:37:36.699Z,64.20
2022-11-25T21:39:38.547Z,65.28
2022-11-25T21:41:40.779Z,66.78
2022-11-25T21:43:45.650Z,65.70
2022-11-25T21:45:48.488Z,61.53
2022-11-25T21:47:57.775Z,61.15
2022-11-25T21:50:12.247Z,63.80
2022-11-25T21:52:14.916Z,64.30
2022-11-25T21:54:16.796Z,64.15
2022-11-25T21:56:30.980Z,63.40
2022-11-25T21:58:32.908Z,64.00
2022-11-25T22:00:34.774Z,63.28
2022-11-25T22:02:37.078Z,63.10
2022-11-25T22:04:40.656Z,68.82
2022-11-25T22:06:45.263Z,65.65
2022-11-25T22:08:47.482Z,68.68
2022-11-25T22:10:52.357Z,66.60
2022-11-25T22:12:54.285Z,63.17
2022-11-25T22:14:58.658Z,66.07
2022-11-25T22:17:01.686Z,66.07
2022-11-25T22:19:04.531Z,65.35
2022-11-25T22:21:06.718Z,64.53
2022-11-25T22:23:16.299Z,64.57
2022-11-25T22:25:18.642Z,63.22
2022-11-25T22:27:26.399Z,65.18
2022-11-25T22:29:34.599Z,65.40
2022-11-25T22:31:36.490Z,62.90
2022-11-25T22:33:38.907Z,64.63
2022-11-25T22:35:41.599Z,86.53
2022-11-25T22:37:44.326Z,67.28
2022-11-25T22:41:55.180Z,59.97
2022-11-25T22:43:57.492Z,61.25
2022-11-25T22:45:59.745Z,59.53
2022-11-25T22:48:06.257Z,64.15
2022-11-25T22:50:21.038Z,62.53
2022-11-25T22:52:29.694Z,60.15
2022-11-25T22:54:33.046Z,61.83
2022-11-25T22:56:34.839Z,63.25
2022-11-25T22:58:37.123Z,60.53
2022-11-25T23:00:46.200Z,59.33
2022-11-25T23:02:49.485Z,62.35
2022-11-25T23:04:54.175Z,61.80
2022-11-25T23:06:56.123Z,59.60
2022-11-25T23:09:00.414Z,60.90
2022-11-25T23:11:02.694Z,60.70
2022-11-25T23:13:04.701Z,60.40
2022-11-25T23:15:06.870Z,63.70
2022-11-25T23:17:23.938Z,65.20
2022-11-25T23:19:25.882Z,60.53
2022-11-25T23:21:29.223Z,61.67
2022-11-25T23:25:32.872Z,57.22
2022-11-25T23:27:35.046Z,68.10
2022-11-25T23:29:36.899Z,59.25
2022-11-25T23:31:40.028Z,61.38
2022-11-25T23:33:47.026Z,60.13
2022-11-25T23:35:49.030Z,60.20
2022-11-25T23:37:54.817Z,61.78
2022-11-25T23:39:57.023Z,62.40
2022-11-25T23:41:59.002Z,58.57
2022-11-25T23:44:14.833Z,62.92
2022-11-25T23:46:20.943Z,63.75
2022-11-25T23:48:27.746Z,61.47
2022-11-25T23:50:32.432Z,62.88
2022-11-25T23:52:34.563Z,63.42
2022-11-25T23:54:42.581Z,63.95
2022-11-25T23:56:44.476Z,61.05
2022-11-25T23:58:46.612Z,61.25
